Latest Weather Observations for Williamson

IDQ60801

Issued at 5:35 pm EST Thursday 18 September 2014 (issued every 30 minutes, with the page automatically refreshed every 10 minutes)

About weather observations | Map of weather stations | Latest weather observations for QLD | Other Formats
Station Details ID: 033195 Name: WILLIAMSON Lat: -22.47 Lon: 150.18 Height: 27.6 m
Data from the previous 72 hours. | See also: Recent months at Williamson
Date/Time
EST
Temp
°C
App
Temp
°C
Dew
Point
Rel
Hum
%
Delta-T
°C
Wind Press
QNH
hPa
Press
MSL
hPa
Rain
since 9 am
mm
Dir
 
Spd
km/h
Gust
km/h
Spd
kts
Gust
kts
18/05:30pm 23.3 19.8 7.0 35 8.4 ENE 15 24 8 13 1016.5 1016.4 0.0
18/05:00pm 24.4 20.4 6.6 32 9.2 ENE 17 22 9 12 1016.2 1016.1 0.0
18/04:30pm 25.3 21.2 6.0 29 9.9 E 17 28 9 15 1015.6 1015.5 0.0
18/04:00pm 25.5 20.7 5.7 28 10.1 ENE 20 32 11 17 1015.4 1015.3 0.0
18/03:30pm 26.2 21.7 6.8 29 10.2 ENE 20 35 11 19 1015.2 1015.1 0.0
18/03:00pm 26.7 21.8 6.7 28 10.5 ENE 22 33 12 18 1015.3 1015.2 0.0
18/02:30pm 27.3 22.9 6.7 27 10.9 ENE 19 32 10 17 1015.5 1015.4 0.0
18/02:00pm 27.3 23.0 7.2 28 10.7 ENE 19 32 10 17 1015.7 1015.6 0.0
18/01:30pm 28.0 23.2 7.3 27 11.1 ENE 22 33 12 18 1015.9 1015.8 0.0
18/01:00pm 27.8 24.7 7.1 27 11.0 NNE 13 26 7 14 1016.4 1016.3 0.0
18/12:30pm 28.2 25.3 6.3 25 11.5 E 11 24 6 13 1016.9 1016.8 0.0
18/12:00pm 27.5 24.2 6.3 26 11.1 SSE 13 20 7 11 1017.6 1017.5 0.0
18/11:30am 27.4 24.4 6.2 26 11.1 S 11 20 6 11 1018.1 1018.0 0.0
18/11:00am 26.7 23.4 6.2 27 10.7 SSE 13 24 7 13 1018.6 1018.5 0.0
18/10:30am 26.2 23.3 6.3 28 10.4 SSE 11 20 6 11 1018.9 1018.8 0.0
18/10:00am 25.6 21.3 7.7 32 9.5 S 20 30 11 16 1019.1 1019.0 0.0
18/09:30am 24.8 19.9 8.3 35 8.8 S 24 37 13 20 1019.4 1019.3 0.0
18/09:00am 24.0 20.6 9.2 39 8.0 S 17 28 9 15 1019.4 1019.3 0.0
18/08:30am 22.3 19.1 9.8 45 6.8 S 17 26 9 14 1019.3 1019.2 0.0
18/08:00am 20.8 18.1 11.7 56 5.1 S 17 26 9 14 1018.9 1018.8 0.0
18/07:30am 19.5 17.9 15.0 75 2.6 S 17 22 9 12 1018.6 1018.5 0.0
18/07:00am 17.6 18.4 17.3 98 0.2 S 9 13 5 7 1018.3 1018.2 0.0
18/06:30am 17.5 18.8 17.2 98 0.2 S 6 9 3 5 1018.0 1017.9 0.0
18/06:00am 15.6 17.3 15.1 97 0.3 SW 0 0 0 0 1017.5 1017.4 0.0
18/05:30am 16.7 18.7 15.9 95 0.5 CALM 0 0 0 0 1017.1 1017.0 0.0
18/05:00am 18.0 20.6 17.5 97 0.3 CALM 0 0 0 0 1016.6 1016.5 0.0
18/04:30am 18.2 19.6 17.9 98 0.2 S 7 11 4 6 1016.5 1016.4 0.0
18/04:00am 17.9 19.4 17.6 98 0.2 S 6 7 3 4 1016.1 1016.0 0.0
18/03:30am 16.5 18.6 16.2 98 0.2 CALM 0 4 0 2 1015.7 1015.6 0.0
18/03:00am 15.1 16.7 14.8 98 0.2 CALM 0 0 0 0 1015.6 1015.5 0.0
18/02:30am 14.6 15.8 13.8 95 0.4 CALM 0 0 0 0 1015.8 1015.7 0.0
18/02:00am 15.0 16.4 14.4 96 0.3 CALM 0 0 0 0 1015.9 1015.8 0.0
18/01:30am 15.6 17.3 15.1 97 0.3 ENE 0 0 0 0 1016.2 1016.1 0.0
18/01:00am 15.9 17.7 15.4 97 0.3 CALM 0 2 0 1 1016.5 1016.4 0.0
18/12:30am 16.0 17.4 15.4 96 0.3 NNE 2 7 1 4 1016.5 1016.4 0.0
18/12:00am 15.9 16.5 15.3 96 0.3 NE 6 7 3 4 1016.7 1016.6 0.0
 
Date/Time
EST
Temp
°C
App
Temp
°C
Dew
Point
Rel
Hum
%
Delta-T
°C
Wind Press
QNH
hPa
Press
MSL
hPa
Rain
since 9 am
mm
Dir
 
Spd
km/h
Gust
km/h
Spd
kts
Gust
kts
17/11:30pm 16.1 17.1 15.3 95 0.5 NNE 4 7 2 4 1016.8 1016.7 0.0
17/11:00pm 16.0 16.5 15.0 94 0.6 NNE 6 7 3 4 1016.7 1016.6 0.0
17/10:30pm 16.2 17.9 15.1 93 0.6 CALM 0 0 0 0 1016.7 1016.6 0.0
17/10:00pm 16.7 18.5 15.4 92 0.8 CALM 0 0 0 0 1016.7 1016.6 0.0
17/09:30pm 17.3 19.2 15.8 91 0.9 CALM 0 0 0 0 1016.6 1016.5 0.0
17/09:00pm 18.1 20.1 16.1 88 1.2 CALM 0 0 0 0 1016.5 1016.4 0.0
17/08:30pm 19.2 21.4 16.4 84 1.7 CALM 0 0 0 0 1016.5 1016.4 0.0
17/08:00pm 20.8 21.6 17.4 81 2.1 NNE 9 13 5 7 1016.1 1016.0 0.0
17/07:30pm 20.8 21.6 17.4 81 2.1 NNE 9 19 5 10 1015.7 1015.6 0.0
17/07:00pm 20.8 22.1 17.2 80 2.2 NNE 6 9 3 5 1015.3 1015.2 0.0
17/06:30pm 21.1 22.5 17.3 79 2.3 NNE 6 9 3 5 1014.9 1014.8 0.0
17/06:00pm 21.9 22.7 16.4 71 3.3 NNE 7 13 4 7 1014.7 1014.6 0.0
17/05:30pm 23.1 22.8 14.4 58 5.1 NNE 9 15 5 8 1014.3 1014.2 0.0
17/05:00pm 24.7 23.9 13.0 48 6.8 NE 9 19 5 10 1014.1 1014.0 0.0
17/04:30pm 24.6 23.0 13.8 51 6.3 NE 15 24 8 13 1013.8 1013.7 0.0
17/04:00pm 25.4 23.4 12.6 45 7.4 NE 15 24 8 13 1013.6 1013.5 0.0
17/03:30pm 27.0 25.7 13.7 44 7.9 NNE 13 20 7 11 1013.5 1013.4 0.0
17/03:00pm 27.3 25.7 12.9 41 8.4 NNE 13 22 7 12 1013.6 1013.5 0.0
17/02:30pm 27.6 25.8 12.0 38 9.0 N 13 24 7 13 1013.8 1013.7 0.0
17/02:00pm 27.9 26.1 13.4 40 8.6 N 15 20 8 11 1013.9 1013.8 0.0
17/01:30pm 29.4 28.0 11.0 32 10.5 NNW 9 15 5 8 1014.4 1014.3 0.0
17/01:00pm 29.0 25.7 6.4 24 12.0 NW 13 20 7 11 1014.8 1014.7 0.0
17/12:30pm 29.3 26.5 8.4 27 11.5 NNW 13 20 7 11 1015.4 1015.3 0.0
17/12:00pm 28.0 25.0 7.8 28 10.9 NW 13 20 7 11 1016.0 1015.9 0.0
17/11:30am 27.1 24.7 9.9 34 9.6 NW 13 24 7 13 1016.5 1016.4 0.0
17/11:00am 26.9 25.1 12.2 40 8.5 NW 13 19 7 10 1016.9 1016.8 0.0
17/10:30am 25.5 25.1 14.0 49 6.8 NW 9 17 5 9 1017.3 1017.2 0.0
17/10:00am 24.6 25.4 15.8 58 5.3 N 6 15 3 8 1017.6 1017.5 0.0
17/09:30am 23.6 24.7 16.6 65 4.3 WNW 6 15 3 8 1018.0 1017.9 0.0
17/09:00am 22.4 22.7 16.9 71 3.4 W 11 17 6 9 1018.2 1018.1 0.0
17/08:30am 21.8 22.0 16.7 73 3.1 WNW 11 17 6 9 1018.0 1017.9 0.0
17/08:00am 20.7 21.9 17.3 81 2.1 W 7 11 4 6 1018.0 1017.9 0.0
17/07:30am 19.4 20.2 17.4 88 1.2 WSW 9 15 5 8 1017.9 1017.8 0.0
17/07:00am 15.9 17.7 15.6 98 0.2 CALM 0 0 0 0 1016.9 1016.8 0.0
17/06:30am 13.2 14.1 12.9 98 0.2 CALM 0 0 0 0 1016.5 1016.4 0.0
17/06:00am 12.7 13.4 12.2 97 0.3 CALM 0 0 0 0 1016.2 1016.1 0.0
17/05:30am 12.7 13.4 12.2 97 0.3 CALM 0 0 0 0 1015.8 1015.7 0.0
17/05:00am 12.8 13.5 12.3 97 0.3 CALM 0 0 0 0 1015.6 1015.5 0.0
17/04:30am 13.0 13.8 12.5 97 0.3 CALM 0 0 0 0 1015.3 1015.2 0.0
17/04:00am 13.6 14.6 13.1 97 0.3 CALM 0 0 0 0 1015.3 1015.2 0.0
17/03:30am 13.8 14.8 13.3 97 0.3 CALM 0 0 0 0 1015.2 1015.1 0.0
17/03:00am 14.1 15.2 13.5 96 0.3 CALM 0 0 0 0 1015.3 1015.2 0.0
17/02:30am 14.5 15.7 13.9 96 0.3 CALM 0 0 0 0 1015.6 1015.5 0.0
17/02:00am 14.8 16.1 14.2 96 0.3 CALM 0 2 0 1 1015.7 1015.6 0.0
17/01:30am 15.3 16.9 15.0 98 0.2 CALM 0 0 0 0 1015.8 1015.7 0.0
17/01:00am 15.8 16.5 15.5 98 0.2 NE 6 9 3 5 1016.0 1015.9 0.0
17/12:30am 14.2 14.6 13.6 96 0.3 N 4 9 2 5 1016.3 1016.2 0.0
17/12:00am 14.6 15.9 14.1 97 0.3 CALM 0 0 0 0 1016.7 1016.6 0.0
 
Date/Time
EST
Temp
°C
App
Temp
°C
Dew
Point
Rel
Hum
%
Delta-T
°C
Wind Press
QNH
hPa
Press
MSL
hPa
Rain
since 9 am
mm
Dir
 
Spd
km/h
Gust
km/h
Spd
kts
Gust
kts
16/11:30pm 14.3 15.1 13.7 96 0.3 E 2 6 1 3 1016.9 1016.8 0.0
16/11:00pm 14.7 15.9 13.9 95 0.4 CALM 0 0 0 0 1017.0 1016.9 0.0
16/10:30pm 15.4 16.9 14.6 95 0.5 CALM 0 0 0 0 1017.1 1017.0 0.0
16/10:00pm 15.6 17.1 14.6 94 0.6 CALM 0 0 0 0 1017.2 1017.1 0.0
16/09:30pm 16.2 17.9 15.2 94 0.6 CALM 0 0 0 0 1017.2 1017.1 0.0
16/09:00pm 16.6 18.4 15.5 93 0.6 CALM 0 0 0 0 1017.0 1016.9 0.0
16/08:30pm 17.1 18.9 15.6 91 0.9 CALM 0 0 0 0 1016.9 1016.8 0.0
16/08:00pm 17.7 18.9 15.9 89 1.1 NE 4 7 2 4 1016.5 1016.4 0.0
16/07:30pm 18.2 18.9 15.6 85 1.5 NE 6 7 3 4 1016.1 1016.0 0.0
16/07:00pm 19.5 20.5 16.3 82 1.9 NNE 6 9 3 5 1015.7 1015.6 0.0
16/06:30pm 20.1 21.0 16.1 78 2.4 NNE 6 9 3 5 1015.2 1015.1 0.0
16/06:00pm 20.9 21.4 16.5 76 2.7 NNE 9 15 5 8 1014.7 1014.6 0.0
16/05:30pm 21.8 21.4 16.1 70 3.4 NE 13 22 7 12 1014.6 1014.5 0.0
16/05:00pm 23.1 22.4 14.4 58 5.1 N 11 20 6 11 1014.5 1014.4 0.0
16/04:30pm 23.7 23.4 14.4 56 5.5 N 9 20 5 11 1014.5 1014.4 0.0
16/04:00pm 24.5 23.2 13.7 51 6.3 NE 13 20 7 11 1014.4 1014.3 0.0
16/03:30pm 24.7 22.9 12.0 45 7.2 NNE 13 26 7 14 1014.3 1014.2 0.0
16/03:00pm 25.4 22.5 9.7 37 8.6 NNE 15 22 8 12 1014.2 1014.1 0.0
16/02:30pm 26.2 23.3 9.5 35 9.2 NNE 15 24 8 13 1014.4 1014.3 0.0
16/02:00pm 26.3 24.1 10.9 38 8.7 NE 13 22 7 12 1014.7 1014.6 0.0
16/01:30pm 27.1 25.0 11.2 37 9.0 NNE 13 22 7 12 1015.1 1015.0 0.0
16/01:00pm 26.4 24.5 11.7 40 8.4 N 13 22 7 12 1015.5 1015.4 0.0
16/12:30pm 26.2 24.5 12.3 42 8.0 NNE 13 22 7 12 1016.0 1015.9 0.0
16/12:00pm 26.9 26.1 14.0 45 7.7 N 11 20 6 11 1016.5 1016.4 0.0
16/11:30am 25.9 25.6 11.6 40 8.1 SSW 4 9 2 5 1017.1 1017.0 0.0
16/11:00am 25.8 24.2 11.6 41 8.1 E 11 17 6 9 1017.7 1017.6 0.0
16/10:30am 25.6 24.9 13.1 46 7.3 NW 9 17 5 9 1018.1 1018.0 0.0
16/10:00am 24.0 23.6 12.9 50 6.4 NW 7 13 4 7 1018.6 1018.5 0.0
16/09:30am 23.5 24.3 14.8 58 5.2 SSW 4 9 2 5 1018.9 1018.8 0.0
16/09:00am 22.5 22.6 15.6 65 4.1 NNW 9 15 5 8 1019.2 1019.1 0.0
16/08:30am 21.5 22.2 15.6 69 3.5 NNE 6 11 3 6 1019.2 1019.1 0.0
16/08:00am 20.1 21.5 16.3 79 2.3 SSE 4 7 2 4 1019.1 1019.0 0.0
16/07:30am 17.9 19.6 16.2 90 1.0 SSE 2 7 1 4 1018.8 1018.7 0.0
16/07:00am 13.5 14.5 13.2 98 0.2 CALM 0 0 0 0 1018.6 1018.5 0.0
16/06:30am 10.2 10.2 9.9 98 0.2 CALM 0 0 0 0 1018.2 1018.1 0.0
16/06:00am 9.9 9.8 9.4 97 0.2 CALM 0 0 0 0 1017.9 1017.8 0.0
16/05:30am 10.0 9.9 9.5 97 0.2 CALM 0 0 0 0 1017.7 1017.6 0.0
16/05:00am 10.2 10.2 9.7 97 0.3 CALM 0 0 0 0 1017.5 1017.4 0.0
16/04:30am 10.4 10.4 9.9 97 0.3 CALM 0 0 0 0 1017.2 1017.1 0.0
16/04:00am 10.7 10.8 10.2 97 0.3 CALM 0 0 0 0 1016.9 1016.8 0.0
16/03:30am 10.6 10.7 10.0 96 0.3 CALM 0 0 0 0 1016.8 1016.7 0.0
16/03:00am 10.9 11.0 10.3 96 0.3 CALM 0 6 0 3 1016.7 1016.6 0.0
16/02:30am 11.5 11.8 11.0 97 0.3 CALM 0 6 0 3 1016.7 1016.6 0.0
16/02:00am 11.7 12.1 11.1 96 0.3 CALM 0 0 0 0 1016.7 1016.6 0.0
16/01:30am 12.3 12.9 11.8 97 0.3 CALM 0 0 0 0 1016.9 1016.8 0.0
16/01:00am 12.3 12.8 11.7 96 0.3 CALM 0 0 0 0 1016.9 1016.8 0.0
16/12:30am 12.4 13.0 11.9 97 0.3 CALM 0 0 0 0 1017.0 1016.9 0.0
16/12:00am 12.5 13.1 11.9 96 0.3 CALM 0 0 0 0 1017.3 1017.2 0.0
 
Date/Time
EST
Temp
°C
App
Temp
°C
Dew
Point
Rel
Hum
%
Delta-T
°C
Wind Press
QNH
hPa
Press
MSL
hPa
Rain
since 9 am
mm
Dir
 
Spd
km/h
Gust
km/h
Spd
kts
Gust
kts
15/11:30pm 12.9 13.5 12.0 94 0.5 CALM 0 4 0 2 1017.6 1017.5 0.0
15/11:00pm 13.8 14.6 12.7 93 0.6 CALM 0 0 0 0 1017.6 1017.5 0.0
15/10:30pm 14.4 15.4 13.1 92 0.7 CALM 0 0 0 0 1017.7 1017.6 0.0
15/10:00pm 15.0 16.1 13.5 91 0.8 CALM 0 0 0 0 1017.6 1017.5 0.0
15/09:30pm 16.2 16.4 14.6 90 0.9 E 7 9 4 5 1017.7 1017.6 0.0
15/09:00pm 17.4 17.8 15.4 88 1.2 E 7 9 4 5 1017.8 1017.7 0.0
15/08:30pm 18.3 18.4 15.4 83 1.7 E 9 13 5 7 1017.8 1017.7 0.0
15/08:00pm 18.2 18.1 14.9 81 1.9 ENE 9 13 5 7 1017.5 1017.4 0.0
15/07:30pm 18.0 19.3 14.1 78 2.2 CALM 0 0 0 0 1017.3 1017.2 0.0
15/07:00pm 19.7 19.8 13.9 69 3.3 NE 6 9 3 5 1017.0 1016.9 0.0
15/06:30pm 20.6 20.5 13.8 65 3.9 NE 7 13 4 7 1016.5 1016.4 0.0
15/06:00pm 21.5 20.8 13.2 59 4.8 ENE 9 15 5 8 1016.1 1016.0 0.0

Other Formats:

Comma delimited format used in spreadsheet applications
http://www.bom.gov.au/fwo/IDQ60801/IDQ60801.95370.axf

JavaScript Object Notation format (JSON) in row-major order
http://www.bom.gov.au/fwo/IDQ60801/IDQ60801.95370.json